Rosewood, California
Current Conditions -  °F | °C
As of 7:53 AM on Wednesday 22 Oct 2014 (Local Time) from KHHR Reporting Station
Clear Clear  
Wind Chill: 65°   Ceiling: Unl
Heat Index: 65°   Visibility: 9mi
Dew Point: 57°   Wind: 3mph
Humidity: 75%   Direction: 110°ESE
Pressure: 29.93"   Gusts: NA
Location:  33.9125°N, 118.235°W
Report Text: KHHR 221453Z 11003KT 9SM CLR 18/14 A2993 RMK AO2 SLP134 T01830139 53016
Loading
Personal Weather Stations






























Interactive Weather Map
Tropical Storm Tracking
New forecast layout! Learn more

10-Day Weather Forecast

Advertisements
Track Severe Weather on mobile